sensor_id;sensor_type;location;lat;lon;timestamp;pressure;altitude;pressure_sealevel;temperature;humidity
46778;BME280;32536;47.128;8.746;2022-08-06T00:01:09;92132.75;;;23.15;48.02
46778;BME280;32536;47.128;8.746;2022-08-06T00:03:36;92117.84;;;23.16;47.76
46778;BME280;32536;47.128;8.746;2022-08-06T00:06:12;92110.88;;;23.15;49.85
46778;BME280;32536;47.128;8.746;2022-08-06T00:08:38;92107.78;;;23.22;48.12
46778;BME280;32536;47.128;8.746;2022-08-06T00:11:05;92095.91;;;23.25;48.61
46778;BME280;32536;47.128;8.746;2022-08-06T00:13:32;92098.44;;;23.29;48.71
46778;BME280;32536;47.128;8.746;2022-08-06T00:15:59;92088.81;;;23.33;48.13
46778;BME280;32536;47.128;8.746;2022-08-06T00:18:25;92088.56;;;23.31;48.95
46778;BME280;32536;47.128;8.746;2022-08-06T00:20:52;92083.94;;;23.23;49.11
46778;BME280;32536;47.128;8.746;2022-08-06T00:23:19;92088.38;;;23.20;48.48
46778;BME280;32536;47.128;8.746;2022-08-06T00:25:46;92095.34;;;23.21;48.55
46778;BME280;32536;47.128;8.746;2022-08-06T00:28:12;92096.09;;;23.22;48.76
46778;BME280;32536;47.128;8.746;2022-08-06T00:30:39;92094.47;;;23.15;48.80
46778;BME280;32536;47.128;8.746;2022-08-06T00:33:06;92094.97;;;23.13;48.26
46778;BME280;32536;47.128;8.746;2022-08-06T00:35:33;92085.06;;;23.16;48.17
46778;BME280;32536;47.128;8.746;2022-08-06T00:37:59;92100.81;;;23.21;48.16
46778;BME280;32536;47.128;8.746;2022-08-06T00:40:28;92093.16;;;23.25;48.47
46778;BME280;32536;47.128;8.746;2022-08-06T00:43:01;92095.16;;;23.25;49.82
46778;BME280;32536;47.128;8.746;2022-08-06T00:45:33;92090.91;;;23.24;50.52
46778;BME280;32536;47.128;8.746;2022-08-06T00:48:01;92094.13;;;23.22;48.73
46778;BME280;32536;47.128;8.746;2022-08-06T00:50:30;92090.16;;;23.23;48.77
46778;BME280;32536;47.128;8.746;2022-08-06T00:52:58;92082.22;;;23.25;48.40
46778;BME280;32536;47.128;8.746;2022-08-06T00:55:26;92083.00;;;23.26;48.25
46778;BME280;32536;47.128;8.746;2022-08-06T00:57:53;92086.66;;;23.23;48.32
46778;BME280;32536;47.128;8.746;2022-08-06T01:00:20;92101.56;;;23.22;48.43
46778;BME280;32536;47.128;8.746;2022-08-06T01:02:47;92102.03;;;23.20;48.43
46778;BME280;32536;47.128;8.746;2022-08-06T01:05:13;92101.47;;;23.16;48.49
46778;BME280;32536;47.128;8.746;2022-08-06T01:07:40;92098.16;;;23.12;48.57
46778;BME280;32536;47.128;8.746;2022-08-06T01:10:07;92095.91;;;23.10;48.79
46778;BME280;32536;47.128;8.746;2022-08-06T01:12:34;92103.16;;;23.13;48.77
46778;BME280;32536;47.128;8.746;2022-08-06T01:15:03;92101.66;;;23.12;49.12
46778;BME280;32536;47.128;8.746;2022-08-06T01:17:35;92109.66;;;23.16;48.73
46778;BME280;32536;47.128;8.746;2022-08-06T01:20:19;92099.66;;;23.13;49.77
46778;BME280;32536;47.128;8.746;2022-08-06T01:29:02;92101.09;;;23.23;50.00
46778;BME280;32536;47.128;8.746;2022-08-06T01:31:43;92108.16;;;23.30;49.80
46778;BME280;32536;47.128;8.746;2022-08-06T01:34:19;92106.53;;;23.38;49.39
46778;BME280;32536;47.128;8.746;2022-08-06T01:36:55;92112.84;;;23.44;49.09
46778;BME280;32536;47.128;8.746;2022-08-06T01:39:30;92120.16;;;23.53;48.54
46778;BME280;32536;47.128;8.746;2022-08-06T01:42:00;92115.06;;;23.61;48.78
46778;BME280;32536;47.128;8.746;2022-08-06T01:44:33;92118.25;;;23.59;48.76
46778;BME280;32536;47.128;8.746;2022-08-06T01:47:05;92116.97;;;23.55;49.37
46778;BME280;32536;47.128;8.746;2022-08-06T01:49:37;92121.47;;;23.58;48.99
46778;BME280;32536;47.128;8.746;2022-08-06T01:52:07;92121.28;;;23.61;48.99
46778;BME280;32536;47.128;8.746;2022-08-06T01:54:39;92115.13;;;23.66;49.42
46778;BME280;32536;47.128;8.746;2022-08-06T01:57:11;92115.50;;;23.74;48.67
46778;BME280;32536;47.128;8.746;2022-08-06T01:59:45;92115.09;;;23.81;49.54
46778;BME280;32536;47.128;8.746;2022-08-06T02:02:24;92121.63;;;23.90;49.63
46778;BME280;32536;47.128;8.746;2022-08-06T02:04:55;92116.06;;;23.99;48.75
46778;BME280;32536;47.128;8.746;2022-08-06T02:07:28;92113.41;;;24.05;48.49
46778;BME280;32536;47.128;8.746;2022-08-06T02:09:59;92110.19;;;24.06;48.50
46778;BME280;32536;47.128;8.746;2022-08-06T02:12:30;92100.19;;;24.03;48.61
46778;BME280;32536;47.128;8.746;2022-08-06T02:15:04;92111.91;;;24.04;49.17
46778;BME280;32536;47.128;8.746;2022-08-06T02:17:40;92122.16;;;24.09;48.93
46778;BME280;32536;47.128;8.746;2022-08-06T02:20:28;92125.44;;;24.13;49.23
46778;BME280;32536;47.128;8.746;2022-08-06T02:22:59;92122.50;;;24.17;48.50
46778;BME280;32536;47.128;8.746;2022-08-06T02:25:30;92123.25;;;24.17;48.55
46778;BME280;32536;47.128;8.746;2022-08-06T02:27:58;92123.50;;;24.19;48.47
46778;BME280;32536;47.128;8.746;2022-08-06T02:30:30;92126.03;;;24.23;49.25
46778;BME280;32536;47.128;8.746;2022-08-06T02:33:03;92117.63;;;24.26;48.37
46778;BME280;32536;47.128;8.746;2022-08-06T02:35:57;92126.59;;;24.27;48.92
46778;BME280;32536;47.128;8.746;2022-08-06T02:38:52;92110.88;;;24.22;48.87
46778;BME280;32536;47.128;8.746;2022-08-06T02:41:30;92114.50;;;24.13;49.11
46778;BME280;32536;47.128;8.746;2022-08-06T02:44:45;92117.63;;;24.06;49.67
46778;BME280;32536;47.128;8.746;2022-08-06T02:47:23;92118.13;;;24.04;48.65
46778;BME280;32536;47.128;8.746;2022-08-06T02:49:59;92130.25;;;23.97;49.29
46778;BME280;32536;47.128;8.746;2022-08-06T02:55:02;92111.81;;;23.98;49.32
46778;BME280;32536;47.128;8.746;2022-08-06T02:57:38;92110.13;;;24.01;49.35
46778;BME280;32536;47.128;8.746;2022-08-06T03:00:08;92106.69;;;24.06;48.75
46778;BME280;32536;47.128;8.746;2022-08-06T03:02:37;92106.47;;;24.09;48.84
46778;BME280;32536;47.128;8.746;2022-08-06T03:05:07;92110.25;;;24.12;48.89
46778;BME280;32536;47.128;8.746;2022-08-06T03:07:37;92111.34;;;24.20;49.64
46778;BME280;32536;47.128;8.746;2022-08-06T03:10:06;92105.88;;;24.20;48.95
46778;BME280;32536;47.128;8.746;2022-08-06T03:12:35;92107.78;;;24.14;49.01
46778;BME280;32536;47.128;8.746;2022-08-06T03:15:04;92100.81;;;24.13;48.66
46778;BME280;32536;47.128;8.746;2022-08-06T03:17:33;92100.81;;;24.13;48.56
46778;BME280;32536;47.128;8.746;2022-08-06T03:20:02;92102.59;;;24.16;48.86
46778;BME280;32536;47.128;8.746;2022-08-06T03:22:31;92109.38;;;24.21;48.63
46778;BME280;32536;47.128;8.746;2022-08-06T03:24:58;92107.91;;;24.25;48.42
46778;BME280;32536;47.128;8.746;2022-08-06T03:27:28;92106.97;;;24.28;48.70
46778;BME280;32536;47.128;8.746;2022-08-06T03:29:57;92106.00;;;24.32;48.18
46778;BME280;32536;47.128;8.746;2022-08-06T03:32:25;92098.53;;;24.32;48.41
46778;BME280;32536;47.128;8.746;2022-08-06T03:34:53;92100.31;;;24.35;48.43
46778;BME280;32536;47.128;8.746;2022-08-06T03:37:20;92108.03;;;24.37;48.28
46778;BME280;32536;47.128;8.746;2022-08-06T03:39:48;92106.06;;;24.37;48.36
46778;BME280;32536;47.128;8.746;2022-08-06T03:42:16;92095.38;;;24.39;48.42
46778;BME280;32536;47.128;8.746;2022-08-06T03:44:43;92099.34;;;24.38;48.58
46778;BME280;32536;47.128;8.746;2022-08-06T03:47:19;92087.59;;;24.32;49.18
46778;BME280;32536;47.128;8.746;2022-08-06T03:50:05;92090.66;;;24.19;49.17
46778;BME280;32536;47.128;8.746;2022-08-06T03:53:04;92090.97;;;24.01;49.27
46778;BME280;32536;47.128;8.746;2022-08-06T03:55:35;92092.31;;;23.90;48.92
46778;BME280;32536;47.128;8.746;2022-08-06T03:58:10;92088.69;;;23.78;49.70
46778;BME280;32536;47.128;8.746;2022-08-06T04:00:51;92093.53;;;23.69;50.10
46778;BME280;32536;47.128;8.746;2022-08-06T04:03:21;92096.75;;;23.67;49.27
46778;BME280;32536;47.128;8.746;2022-08-06T04:05:49;92098.25;;;23.68;49.31
46778;BME280;32536;47.128;8.746;2022-08-06T04:08:50;92096.53;;;23.71;49.10
46778;BME280;32536;47.128;8.746;2022-08-06T04:11:19;92096.34;;;23.74;49.10
46778;BME280;32536;47.128;8.746;2022-08-06T04:13:46;92095.84;;;23.76;48.96
46778;BME280;32536;47.128;8.746;2022-08-06T04:16:14;92097.09;;;23.75;49.04
46778;BME280;32536;47.128;8.746;2022-08-06T04:18:42;92103.78;;;23.74;49.02
46778;BME280;32536;47.128;8.746;2022-08-06T04:21:13;92100.31;;;23.73;49.10
46778;BME280;32536;47.128;8.746;2022-08-06T04:23:42;92111.44;;;23.70;48.90
46778;BME280;32536;47.128;8.746;2022-08-06T04:26:12;92116.34;;;23.65;49.11
46778;BME280;32536;47.128;8.746;2022-08-06T04:28:42;92126.00;;;23.61;49.15
46778;BME280;32536;47.128;8.746;2022-08-06T04:31:12;92126.47;;;23.59;49.20
46778;BME280;32536;47.128;8.746;2022-08-06T04:33:39;92131.94;;;23.59;49.09
46778;BME280;32536;47.128;8.746;2022-08-06T04:36:08;92137.41;;;23.59;49.24
46778;BME280;32536;47.128;8.746;2022-08-06T04:38:36;92142.41;;;23.61;49.28
46778;BME280;32536;47.128;8.746;2022-08-06T04:41:03;92128.78;;;23.66;49.04
46778;BME280;32536;47.128;8.746;2022-08-06T04:43:31;92132.09;;;23.71;49.04
46778;BME280;32536;47.128;8.746;2022-08-06T04:45:59;92141.53;;;23.70;49.05
46778;BME280;32536;47.128;8.746;2022-08-06T04:48:26;92139.53;;;23.70;49.05
46778;BME280;32536;47.128;8.746;2022-08-06T04:50:53;92139.00;;;23.66;49.22
46778;BME280;32536;47.128;8.746;2022-08-06T04:53:21;92137.13;;;23.57;49.13
46778;BME280;32536;47.128;8.746;2022-08-06T04:55:48;92140.53;;;23.52;49.31
46778;BME280;32536;47.128;8.746;2022-08-06T04:58:16;92146.94;;;23.49;49.40
46778;BME280;32536;47.128;8.746;2022-08-06T05:00:47;92145.94;;;23.46;49.90
46778;BME280;32536;47.128;8.746;2022-08-06T05:03:14;92148.91;;;23.48;49.50
46778;BME280;32536;47.128;8.746;2022-08-06T05:05:53;92158.63;;;23.49;50.46
46778;BME280;32536;47.128;8.746;2022-08-06T05:09:08;92157.22;;;23.54;50.18
46778;BME280;32536;47.128;8.746;2022-08-06T05:11:41;92158.53;;;23.59;49.60
46778;BME280;32536;47.128;8.746;2022-08-06T05:14:22;92154.00;;;23.56;49.49
46778;BME280;32536;47.128;8.746;2022-08-06T05:16:55;92157.81;;;23.43;49.36
46778;BME280;32536;47.128;8.746;2022-08-06T05:19:42;92167.81;;;23.31;50.07
46778;BME280;32536;47.128;8.746;2022-08-06T05:22:16;92163.38;;;23.19;49.70
46778;BME280;32536;47.128;8.746;2022-08-06T05:24:45;92168.16;;;23.09;49.95
46778;BME280;32536;47.128;8.746;2022-08-06T05:27:13;92166.59;;;23.02;50.14
46778;BME280;32536;47.128;8.746;2022-08-06T05:29:41;92171.47;;;22.98;50.11
46778;BME280;32536;47.128;8.746;2022-08-06T05:32:08;92171.47;;;22.98;50.30
46778;BME280;32536;47.128;8.746;2022-08-06T05:34:35;92165.53;;;23.00;50.28
46778;BME280;32536;47.128;8.746;2022-08-06T05:37:01;92168.28;;;23.00;50.34
46778;BME280;32536;47.128;8.746;2022-08-06T05:39:28;92167.25;;;22.97;50.46
46778;BME280;32536;47.128;8.746;2022-08-06T05:41:55;92164.03;;;22.99;50.57
46778;BME280;32536;47.128;8.746;2022-08-06T05:44:22;92169.03;;;23.00;50.64
46778;BME280;32536;47.128;8.746;2022-08-06T05:46:52;92170.63;;;23.07;50.92
46778;BME280;32536;47.128;8.746;2022-08-06T05:49:30;92172.22;;;23.14;51.17
46778;BME280;32536;47.128;8.746;2022-08-06T05:52:15;92166.75;;;23.14;51.78
46778;BME280;32536;47.128;8.746;2022-08-06T05:57:39;92177.97;;;23.16;50.47
46778;BME280;32536;47.128;8.746;2022-08-06T06:00:30;92172.34;;;23.20;50.76
46778;BME280;32536;47.128;8.746;2022-08-06T06:03:00;92178.38;;;23.24;50.65
46778;BME280;32536;47.128;8.746;2022-08-06T06:05:30;92180.81;;;23.22;50.36
46778;BME280;32536;47.128;8.746;2022-08-06T06:07:57;92176.94;;;23.13;50.45
46778;BME280;32536;47.128;8.746;2022-08-06T06:10:26;92178.66;;;23.11;50.78
46778;BME280;32536;47.128;8.746;2022-08-06T06:12:54;92177.13;;;23.10;50.63
46778;BME280;32536;47.128;8.746;2022-08-06T06:15:22;92185.78;;;23.08;50.59
46778;BME280;32536;47.128;8.746;2022-08-06T06:21:10;92179.75;;;22.89;51.27
46778;BME280;32536;47.128;8.746;2022-08-06T06:23:52;92189.91;;;22.89;51.68
46778;BME280;32536;47.128;8.746;2022-08-06T06:29:16;92178.81;;;22.92;51.34
46778;BME280;32536;47.128;8.746;2022-08-06T06:32:00;92180.31;;;22.93;51.53
46778;BME280;32536;47.128;8.746;2022-08-06T06:35:02;92178.16;;;22.97;51.68
46778;BME280;32536;47.128;8.746;2022-08-06T06:37:54;92181.66;;;22.98;51.12
46778;BME280;32536;47.128;8.746;2022-08-06T06:43:18;92188.25;;;22.91;51.66
46778;BME280;32536;47.128;8.746;2022-08-06T06:46:19;92190.41;;;22.87;51.38
46778;BME280;32536;47.128;8.746;2022-08-06T06:49:04;92196.53;;;22.82;51.58
46778;BME280;32536;47.128;8.746;2022-08-06T06:51:49;92195.97;;;22.78;51.23
46778;BME280;32536;47.128;8.746;2022-08-06T06:54:32;92199.31;;;22.73;52.10
46778;BME280;32536;47.128;8.746;2022-08-06T06:57:09;92191.59;;;22.71;51.14
46778;BME280;32536;47.128;8.746;2022-08-06T06:59:43;92192.72;;;22.64;52.59
46778;BME280;32536;47.128;8.746;2022-08-06T07:02:19;92196.88;;;22.60;51.38
46778;BME280;32536;47.128;8.746;2022-08-06T07:04:51;92192.63;;;22.59;51.02
46778;BME280;32536;47.128;8.746;2022-08-06T07:07:20;92193.84;;;22.58;51.10
46778;BME280;32536;47.128;8.746;2022-08-06T07:09:48;92197.03;;;22.56;51.10
46778;BME280;32536;47.128;8.746;2022-08-06T07:12:19;92198.44;;;22.51;51.51
46778;BME280;32536;47.128;8.746;2022-08-06T07:14:50;92197.88;;;22.47;51.77
46778;BME280;32536;47.128;8.746;2022-08-06T07:17:20;92206.50;;;22.46;51.18
46778;BME280;32536;47.128;8.746;2022-08-06T07:19:51;92199.28;;;22.43;51.45
46778;BME280;32536;47.128;8.746;2022-08-06T07:22:23;92207.00;;;22.35;52.00
46778;BME280;32536;47.128;8.746;2022-08-06T07:24:51;92205.97;;;22.32;52.96
46778;BME280;32536;47.128;8.746;2022-08-06T07:27:20;92213.13;;;22.30;50.89
46778;BME280;32536;47.128;8.746;2022-08-06T07:29:48;92212.72;;;22.22;50.86
46778;BME280;32536;47.128;8.746;2022-08-06T07:32:15;92214.47;;;22.10;51.14
46778;BME280;32536;47.128;8.746;2022-08-06T07:34:43;92214.69;;;21.97;51.46
46778;BME280;32536;47.128;8.746;2022-08-06T07:37:11;92212.00;;;21.88;51.44
46778;BME280;32536;47.128;8.746;2022-08-06T07:39:39;92215.19;;;21.86;51.82
46778;BME280;32536;47.128;8.746;2022-08-06T07:42:10;92217.94;;;21.86;52.07
46778;BME280;32536;47.128;8.746;2022-08-06T07:44:42;92218.97;;;21.89;52.51
46778;BME280;32536;47.128;8.746;2022-08-06T07:47:18;92221.22;;;21.90;52.12
46778;BME280;32536;47.128;8.746;2022-08-06T07:49:54;92218.19;;;21.88;53.02
46778;BME280;32536;47.128;8.746;2022-08-06T07:52:23;92217.47;;;21.88;51.70
46778;BME280;32536;47.128;8.746;2022-08-06T07:54:53;92220.94;;;21.88;51.70
46778;BME280;32536;47.128;8.746;2022-08-06T07:57:22;92221.69;;;21.89;51.69
46778;BME280;32536;47.128;8.746;2022-08-06T07:59:49;92220.50;;;21.90;51.83
46778;BME280;32536;47.128;8.746;2022-08-06T08:02:17;92221.69;;;21.89;51.66
46778;BME280;32536;47.128;8.746;2022-08-06T08:04:44;92224.28;;;21.83;51.64
46778;BME280;32536;47.128;8.746;2022-08-06T08:07:30;92228.69;;;21.81;51.80
46778;BME280;32536;47.128;8.746;2022-08-06T08:09:58;92225.09;;;21.74;51.94
46778;BME280;32536;47.128;8.746;2022-08-06T08:12:26;92227.56;;;21.63;51.85
46778;BME280;32536;47.128;8.746;2022-08-06T08:14:53;92225.75;;;21.60;52.16
46778;BME280;32536;47.128;8.746;2022-08-06T08:17:20;92228.94;;;21.58;52.18
46778;BME280;32536;47.128;8.746;2022-08-06T08:19:47;92230.31;;;21.54;52.11
46778;BME280;32536;47.128;8.746;2022-08-06T08:22:15;92232.88;;;21.48;52.34
46778;BME280;32536;47.128;8.746;2022-08-06T08:24:45;92229.88;;;21.46;52.23
46778;BME280;32536;47.128;8.746;2022-08-06T08:27:14;92235.78;;;21.44;52.29
46778;BME280;32536;47.128;8.746;2022-08-06T08:29:41;92235.78;;;21.44;52.27
46778;BME280;32536;47.128;8.746;2022-08-06T08:32:08;92239.09;;;21.49;52.13
46778;BME280;32536;47.128;8.746;2022-08-06T08:34:35;92236.53;;;21.45;52.15
46778;BME280;32536;47.128;8.746;2022-08-06T08:39:48;92239.25;;;21.45;52.49
46778;BME280;32536;47.128;8.746;2022-08-06T08:42:21;92242.31;;;21.47;53.86
46778;BME280;32536;47.128;8.746;2022-08-06T08:44:54;92250.59;;;21.53;52.54
46778;BME280;32536;47.128;8.746;2022-08-06T08:47:22;92250.00;;;21.58;52.43
46778;BME280;32536;47.128;8.746;2022-08-06T08:49:55;92242.13;;;21.60;55.00
46778;BME280;32536;47.128;8.746;2022-08-06T08:52:32;92241.22;;;21.63;54.04
46778;BME280;32536;47.128;8.746;2022-08-06T08:55:05;92241.47;;;21.65;53.53
46778;BME280;32536;47.128;8.746;2022-08-06T08:57:34;92253.75;;;21.70;52.20
46778;BME280;32536;47.128;8.746;2022-08-06T09:00:05;92243.00;;;21.66;52.56
46778;BME280;32536;47.128;8.746;2022-08-06T09:02:33;92242.41;;;21.62;52.18
46778;BME280;32536;47.128;8.746;2022-08-06T09:05:04;92256.53;;;21.61;52.38
46778;BME280;32536;47.128;8.746;2022-08-06T09:07:32;92251.22;;;21.57;52.29
46778;BME280;32536;47.128;8.746;2022-08-06T09:09:59;92259.09;;;21.46;52.39
46778;BME280;32536;47.128;8.746;2022-08-06T09:12:26;92255.00;;;21.41;52.80
46778;BME280;32536;47.128;8.746;2022-08-06T09:14:53;92265.31;;;21.37;52.56
46778;BME280;32536;47.128;8.746;2022-08-06T09:17:19;92267.78;;;21.25;52.71
46778;BME280;32536;47.128;8.746;2022-08-06T09:19:47;92258.88;;;21.16;52.91
46778;BME280;32536;47.128;8.746;2022-08-06T09:22:15;92263.41;;;21.09;52.98
46778;BME280;32536;47.128;8.746;2022-08-06T09:24:42;92269.47;;;21.04;53.13
46778;BME280;32536;47.128;8.746;2022-08-06T09:27:14;92274.63;;;21.02;53.87
46778;BME280;32536;47.128;8.746;2022-08-06T09:29:54;92283.84;;;20.95;54.26
46778;BME280;32536;47.128;8.746;2022-08-06T09:32:55;92275.09;;;20.91;54.03
46778;BME280;32536;47.128;8.746;2022-08-06T09:38:06;92272.50;;;20.88;53.83
46778;BME280;32536;47.128;8.746;2022-08-06T09:40:35;92274.63;;;20.84;53.43
46778;BME280;32536;47.128;8.746;2022-08-06T09:43:02;92278.56;;;20.83;53.37
46778;BME280;32536;47.128;8.746;2022-08-06T09:45:29;92276.75;;;20.79;53.41
46778;BME280;32536;47.128;8.746;2022-08-06T09:50:49;92289.25;;;20.68;54.17
46778;BME280;32536;47.128;8.746;2022-08-06T09:53:17;92281.84;;;20.68;53.63
46778;BME280;32536;47.128;8.746;2022-08-06T09:55:44;92280.81;;;20.66;53.58
46778;BME280;32536;47.128;8.746;2022-08-06T09:58:11;92283.97;;;20.64;53.73
46778;BME280;32536;47.128;8.746;2022-08-06T10:00:38;92278.50;;;20.64;53.44
46778;BME280;32536;47.128;8.746;2022-08-06T10:03:07;92276.25;;;20.62;54.13
46778;BME280;32536;47.128;8.746;2022-08-06T10:05:35;92270.66;;;20.66;53.86
46778;BME280;32536;47.128;8.746;2022-08-06T10:08:08;92274.59;;;20.65;54.26
46778;BME280;32536;47.128;8.746;2022-08-06T10:10:49;92285.31;;;20.69;54.32
46778;BME280;32536;47.128;8.746;2022-08-06T10:13:20;92275.94;;;20.70;54.24
46778;BME280;32536;47.128;8.746;2022-08-06T10:15:50;92280.94;;;20.71;54.01
46778;BME280;32536;47.128;8.746;2022-08-06T10:21:17;92282.75;;;20.65;55.30
46778;BME280;32536;47.128;8.746;2022-08-06T10:23:52;92277.63;;;20.67;54.30
46778;BME280;32536;47.128;8.746;2022-08-06T10:26:31;92280.81;;;20.66;55.07
46778;BME280;32536;47.128;8.746;2022-08-06T10:29:06;92283.38;;;20.69;55.31
46778;BME280;32536;47.128;8.746;2022-08-06T10:31:35;92279.59;;;20.76;54.03
46778;BME280;32536;47.128;8.746;2022-08-06T10:36:36;92282.66;;;20.87;53.80
46778;BME280;32536;47.128;8.746;2022-08-06T10:41:51;92277.03;;;20.91;53.80
46778;BME280;32536;47.128;8.746;2022-08-06T10:44:19;92274.47;;;20.97;53.85
46778;BME280;32536;47.128;8.746;2022-08-06T10:46:52;92279.28;;;21.02;54.67
46778;BME280;32536;47.128;8.746;2022-08-06T10:49:20;92277.19;;;21.06;53.95
46778;BME280;32536;47.128;8.746;2022-08-06T10:51:49;92276.56;;;21.11;53.75
46778;BME280;32536;47.128;8.746;2022-08-06T10:54:16;92278.09;;;21.12;53.68
46778;BME280;32536;47.128;8.746;2022-08-06T10:56:45;92272.19;;;21.14;54.10
46778;BME280;32536;47.128;8.746;2022-08-06T10:59:14;92277.31;;;21.21;53.84
46778;BME280;32536;47.128;8.746;2022-08-06T11:04:57;92270.78;;;21.27;53.83
46778;BME280;32536;47.128;8.746;2022-08-06T11:14:11;92270.03;;;21.27;54.22
46778;BME280;32536;47.128;8.746;2022-08-06T11:16:40;92272.13;;;21.32;53.60
46778;BME280;32536;47.128;8.746;2022-08-06T11:19:11;92275.63;;;21.33;54.16
46778;BME280;32536;47.128;8.746;2022-08-06T11:24:10;92272.44;;;21.43;54.03
46778;BME280;32536;47.128;8.746;2022-08-06T11:26:39;92260.75;;;21.43;53.69
46778;BME280;32536;47.128;8.746;2022-08-06T11:29:12;92259.09;;;21.46;53.83
46778;BME280;32536;47.128;8.746;2022-08-06T11:31:43;92261.97;;;21.42;53.78
46778;BME280;32536;47.128;8.746;2022-08-06T11:34:16;92260.75;;;21.43;53.99
46778;BME280;32536;47.128;8.746;2022-08-06T11:36:48;92262.88;;;21.48;54.07
46778;BME280;32536;47.128;8.746;2022-08-06T11:39:15;92266.81;;;21.56;54.35
46778;BME280;32536;47.128;8.746;2022-08-06T11:41:46;92262.13;;;21.57;53.46
46778;BME280;32536;47.128;8.746;2022-08-06T11:44:17;92256.69;;;21.57;53.64
46778;BME280;32536;47.128;8.746;2022-08-06T11:46:46;92258.47;;;21.60;53.65
46778;BME280;32536;47.128;8.746;2022-08-06T11:51:57;92261.03;;;21.64;54.38
46778;BME280;32536;47.128;8.746;2022-08-06T12:02:06;92257.88;;;21.56;53.91
46778;BME280;32536;47.128;8.746;2022-08-06T12:07:24;92253.19;;;21.56;54.69
46778;BME280;32536;47.128;8.746;2022-08-06T12:10:07;92257.25;;;21.61;54.00
46778;BME280;32536;47.128;8.746;2022-08-06T12:12:45;92258.47;;;21.60;54.25
46778;BME280;32536;47.128;8.746;2022-08-06T12:20:37;92255.75;;;21.60;54.02
46778;BME280;32536;47.128;8.746;2022-08-06T12:23:13;92263.19;;;21.59;53.57
46778;BME280;32536;47.128;8.746;2022-08-06T12:25:43;92254.84;;;21.54;53.65
46778;BME280;32536;47.128;8.746;2022-08-06T12:28:14;92262.69;;;21.52;53.44
46778;BME280;32536;47.128;8.746;2022-08-06T12:33:14;92264.25;;;21.43;53.41
46778;BME280;32536;47.128;8.746;2022-08-06T12:35:54;92266.53;;;21.36;54.38
46778;BME280;32536;47.128;8.746;2022-08-06T12:38:28;92263.53;;;21.34;53.70
46778;BME280;32536;47.128;8.746;2022-08-06T12:41:02;92257.94;;;21.28;53.67
46778;BME280;32536;47.128;8.746;2022-08-06T12:43:34;92255.66;;;21.26;53.64
46778;BME280;32536;47.128;8.746;2022-08-06T12:46:02;92260.81;;;21.24;53.69
46778;BME280;32536;47.128;8.746;2022-08-06T12:48:36;92259.44;;;21.20;53.67
46778;BME280;32536;47.128;8.746;2022-08-06T12:51:06;92258.56;;;21.14;54.17
46778;BME280;32536;47.128;8.746;2022-08-06T12:53:39;92255.53;;;21.11;53.94
46778;BME280;32536;47.128;8.746;2022-08-06T12:56:10;92254.47;;;21.09;53.79
46778;BME280;32536;47.128;8.746;2022-08-06T12:58:39;92253.88;;;21.05;53.72
46778;BME280;32536;47.128;8.746;2022-08-06T13:01:08;92252.06;;;21.02;53.86
46778;BME280;32536;47.128;8.746;2022-08-06T13:03:46;92259.50;;;21.01;54.04
46778;BME280;32536;47.128;8.746;2022-08-06T13:06:16;92263.09;;;20.98;53.82
46778;BME280;32536;47.128;8.746;2022-08-06T13:08:47;92262.81;;;20.96;53.93
46778;BME280;32536;47.128;8.746;2022-08-06T13:11:16;92260.25;;;20.92;53.77
46778;BME280;32536;47.128;8.746;2022-08-06T13:13:47;92265.84;;;20.89;54.08
46778;BME280;32536;47.128;8.746;2022-08-06T13:16:17;92256.63;;;20.86;53.67
46778;BME280;32536;47.128;8.746;2022-08-06T13:19:07;92259.34;;;20.86;54.53
46778;BME280;32536;47.128;8.746;2022-08-06T13:21:37;92261.63;;;20.88;53.81
46778;BME280;32536;47.128;8.746;2022-08-06T13:24:06;92262.22;;;20.83;53.59
46778;BME280;32536;47.128;8.746;2022-08-06T13:26:46;92260.41;;;20.79;53.93
46778;BME280;32536;47.128;8.746;2022-08-06T13:29:17;92263.91;;;20.80;54.22
46778;BME280;32536;47.128;8.746;2022-08-06T13:31:59;92262.38;;;20.79;54.74
46778;BME280;32536;47.128;8.746;2022-08-06T13:34:55;92267.81;;;20.79;54.57
46778;BME280;32536;47.128;8.746;2022-08-06T13:37:53;92261.59;;;20.78;54.82
46778;BME280;32536;47.128;8.746;2022-08-06T13:40:35;92256.94;;;20.79;54.82
46778;BME280;32536;47.128;8.746;2022-08-06T13:43:05;92258.72;;;20.82;53.97
46778;BME280;32536;47.128;8.746;2022-08-06T13:45:32;92264.50;;;20.84;53.90
46778;BME280;32536;47.128;8.746;2022-08-06T13:48:09;92267.06;;;20.88;54.37
46778;BME280;32536;47.128;8.746;2022-08-06T13:50:38;92259.47;;;20.92;53.90
46778;BME280;32536;47.128;8.746;2022-08-06T13:53:08;92261.00;;;20.93;53.68
46778;BME280;32536;47.128;8.746;2022-08-06T13:55:36;92265.09;;;20.88;53.85
46778;BME280;32536;47.128;8.746;2022-08-06T13:58:04;92263.91;;;20.80;53.97
46778;BME280;32536;47.128;8.746;2022-08-06T14:00:30;92256.78;;;20.73;54.16
46778;BME280;32536;47.128;8.746;2022-08-06T14:02:58;92257.03;;;20.66;54.33
46778;BME280;32536;47.128;8.746;2022-08-06T14:05:25;92256.13;;;20.60;54.52
46778;BME280;32536;47.128;8.746;2022-08-06T14:07:52;92248.91;;;20.57;54.60
46778;BME280;32536;47.128;8.746;2022-08-06T14:10:18;92252.22;;;20.61;54.41
46778;BME280;32536;47.128;8.746;2022-08-06T14:12:45;92251.75;;;20.62;54.37
46778;BME280;32536;47.128;8.746;2022-08-06T14:15:31;92246.94;;;20.67;54.49
46778;BME280;32536;47.128;8.746;2022-08-06T14:17:59;92252.97;;;20.71;54.31
46778;BME280;32536;47.128;8.746;2022-08-06T14:20:25;92245.41;;;20.75;54.28
46778;BME280;32536;47.128;8.746;2022-08-06T14:22:53;92244.06;;;20.79;54.49
46778;BME280;32536;47.128;8.746;2022-08-06T14:25:21;92248.16;;;20.84;54.33
46778;BME280;32536;47.128;8.746;2022-08-06T14:27:48;92251.78;;;20.90;54.06
46778;BME280;32536;47.128;8.746;2022-08-06T14:30:16;92251.47;;;20.88;54.27
46778;BME280;32536;47.128;8.746;2022-08-06T14:32:43;92248.31;;;20.90;54.36
46778;BME280;32536;47.128;8.746;2022-08-06T14:35:10;92254.81;;;20.92;54.24